Cordele, Georgia
Current Conditions -  °F | °C
As of 12:15 AM on Sunday 21 Dec 2014 (Local Time) from KCKF Reporting Station
Overcast Overcast  
Wind Chill: 55°   Ceiling: 800
Heat Index: 55°   Visibility: 10mi
Dew Point: 52°   Wind: 6mph
Humidity: 91%   Direction: 90°E
Pressure: 30.18"   Gusts: NA
Location:  31.97°N, 83.78°W
Report Text: KCKF 210515Z AUTO 09005KT 10SM OVC008 13/11 A3018 RMK AO2 T01250110
Loading
Personal Weather Stations






























Interactive Weather Map New forecast layout! Learn more

10-Day Weather Forecast

Advertisements
Track Severe Weather on mobile